sensor_id;sensor_type;location;lat;lon;timestamp;P1;durP1;ratioP1;P2;durP2;ratioP2
20802;SDS011;10562;-33.856;151.182;2023-03-05T00:01:13;2.38;;;0.70;;
20802;SDS011;10562;-33.856;151.182;2023-03-05T00:03:47;1.88;;;0.70;;
20802;SDS011;10562;-33.856;151.182;2023-03-05T00:06:19;5.75;;;0.95;;
20802;SDS011;10562;-33.856;151.182;2023-03-05T00:08:51;5.03;;;0.70;;
20802;SDS011;10562;-33.856;151.182;2023-03-05T00:11:23;3.63;;;0.75;;
20802;SDS011;10562;-33.856;151.182;2023-03-05T00:13:55;2.92;;;0.65;;
20802;SDS011;10562;-33.856;151.182;2023-03-05T00:16:28;3.67;;;0.60;;
20802;SDS011;10562;-33.856;151.182;2023-03-05T00:18:59;4.97;;;0.90;;
20802;SDS011;10562;-33.856;151.182;2023-03-05T00:21:31;3.30;;;0.70;;
20802;SDS011;10562;-33.856;151.182;2023-03-05T00:24:03;4.43;;;0.77;;
20802;SDS011;10562;-33.856;151.182;2023-03-05T00:26:35;3.67;;;0.77;;
20802;SDS011;10562;-33.856;151.182;2023-03-05T00:29:07;3.92;;;0.77;;
20802;SDS011;10562;-33.856;151.182;2023-03-05T00:31:42;4.05;;;0.85;;
20802;SDS011;10562;-33.856;151.182;2023-03-05T00:34:13;4.97;;;0.90;;
20802;SDS011;10562;-33.856;151.182;2023-03-05T00:36:46;3.25;;;0.90;;
20802;SDS011;10562;-33.856;151.182;2023-03-05T00:39:18;3.90;;;0.77;;
20802;SDS011;10562;-33.856;151.182;2023-03-05T00:41:49;4.68;;;1.00;;
20802;SDS011;10562;-33.856;151.182;2023-03-05T00:44:20;4.68;;;0.88;;
20802;SDS011;10562;-33.856;151.182;2023-03-05T00:46:53;2.38;;;0.82;;
20802;SDS011;10562;-33.856;151.182;2023-03-05T00:49:24;4.45;;;0.90;;
20802;SDS011;10562;-33.856;151.182;2023-03-05T00:51:54;5.22;;;0.90;;
20802;SDS011;10562;-33.856;151.182;2023-03-05T00:54:25;4.85;;;1.02;;
20802;SDS011;10562;-33.856;151.182;2023-03-05T00:56:56;4.72;;;0.90;;
20802;SDS011;10562;-33.856;151.182;2023-03-05T00:59:27;5.40;;;1.00;;
20802;SDS011;10562;-33.856;151.182;2023-03-05T01:01:59;6.72;;;1.10;;
20802;SDS011;10562;-33.856;151.182;2023-03-05T01:04:30;8.75;;;1.23;;
20802;SDS011;10562;-33.856;151.182;2023-03-05T01:07:01;6.05;;;1.10;;
20802;SDS011;10562;-33.856;151.182;2023-03-05T01:09:32;5.15;;;1.30;;
20802;SDS011;10562;-33.856;151.182;2023-03-05T01:12:03;6.68;;;1.27;;
20802;SDS011;10562;-33.856;151.182;2023-03-05T01:14:34;6.32;;;1.13;;
20802;SDS011;10562;-33.856;151.182;2023-03-05T01:17:06;4.18;;;1.20;;
20802;SDS011;10562;-33.856;151.182;2023-03-05T01:19:37;6.60;;;1.50;;
20802;SDS011;10562;-33.856;151.182;2023-03-05T01:22:08;6.05;;;1.70;;
20802;SDS011;10562;-33.856;151.182;2023-03-05T01:24:39;3.50;;;1.08;;
20802;SDS011;10562;-33.856;151.182;2023-03-05T01:27:10;4.07;;;1.10;;
20802;SDS011;10562;-33.856;151.182;2023-03-05T01:29:40;7.55;;;1.20;;
20802;SDS011;10562;-33.856;151.182;2023-03-05T01:32:13;8.93;;;1.33;;
20802;SDS011;10562;-33.856;151.182;2023-03-05T01:34:44;6.80;;;1.27;;
20802;SDS011;10562;-33.856;151.182;2023-03-05T01:37:15;5.72;;;1.25;;
20802;SDS011;10562;-33.856;151.182;2023-03-05T01:39:45;6.53;;;1.25;;
20802;SDS011;10562;-33.856;151.182;2023-03-05T01:42:16;6.88;;;1.27;;
20802;SDS011;10562;-33.856;151.182;2023-03-05T01:44:58;5.53;;;1.50;;
20802;SDS011;10562;-33.856;151.182;2023-03-05T01:47:33;4.53;;;1.20;;
20802;SDS011;10562;-33.856;151.182;2023-03-05T01:50:04;7.18;;;1.20;;
20802;SDS011;10562;-33.856;151.182;2023-03-05T01:52:37;9.63;;;1.42;;
20802;SDS011;10562;-33.856;151.182;2023-03-05T01:55:11;5.97;;;1.20;;
20802;SDS011;10562;-33.856;151.182;2023-03-05T01:57:44;11.95;;;1.65;;
20802;SDS011;10562;-33.856;151.182;2023-03-05T02:00:18;6.40;;;1.20;;
20802;SDS011;10562;-33.856;151.182;2023-03-05T02:02:53;7.60;;;1.73;;
20802;SDS011;10562;-33.856;151.182;2023-03-05T02:05:26;6.20;;;1.65;;
20802;SDS011;10562;-33.856;151.182;2023-03-05T02:07:59;7.32;;;1.45;;
20802;SDS011;10562;-33.856;151.182;2023-03-05T02:10:31;6.50;;;1.33;;
20802;SDS011;10562;-33.856;151.182;2023-03-05T02:13:04;4.07;;;1.38;;
20802;SDS011;10562;-33.856;151.182;2023-03-05T02:15:37;4.43;;;1.02;;
20802;SDS011;10562;-33.856;151.182;2023-03-05T02:18:11;5.78;;;1.33;;
20802;SDS011;10562;-33.856;151.182;2023-03-05T02:20:42;7.32;;;1.48;;
20802;SDS011;10562;-33.856;151.182;2023-03-05T02:23:17;6.85;;;1.23;;
20802;SDS011;10562;-33.856;151.182;2023-03-05T02:25:49;5.88;;;1.38;;
20802;SDS011;10562;-33.856;151.182;2023-03-05T02:28:22;6.40;;;1.35;;
20802;SDS011;10562;-33.856;151.182;2023-03-05T02:30:54;9.05;;;1.02;;
20802;SDS011;10562;-33.856;151.182;2023-03-05T02:33:26;9.00;;;1.40;;
20802;SDS011;10562;-33.856;151.182;2023-03-05T02:35:57;8.00;;;1.27;;
20802;SDS011;10562;-33.856;151.182;2023-03-05T02:38:29;5.15;;;1.23;;
20802;SDS011;10562;-33.856;151.182;2023-03-05T02:41:00;5.85;;;1.42;;
20802;SDS011;10562;-33.856;151.182;2023-03-05T02:43:31;5.70;;;1.20;;
20802;SDS011;10562;-33.856;151.182;2023-03-05T02:46:02;9.40;;;1.40;;
20802;SDS011;10562;-33.856;151.182;2023-03-05T02:48:33;5.07;;;1.00;;
20802;SDS011;10562;-33.856;151.182;2023-03-05T02:51:03;5.65;;;1.30;;
20802;SDS011;10562;-33.856;151.182;2023-03-05T02:53:37;5.00;;;0.88;;
20802;SDS011;10562;-33.856;151.182;2023-03-05T02:56:07;5.30;;;1.23;;
20802;SDS011;10562;-33.856;151.182;2023-03-05T02:58:38;7.25;;;1.30;;
20802;SDS011;10562;-33.856;151.182;2023-03-05T03:01:09;4.35;;;1.10;;
20802;SDS011;10562;-33.856;151.182;2023-03-05T03:03:40;5.93;;;1.10;;
20802;SDS011;10562;-33.856;151.182;2023-03-05T03:06:10;6.28;;;1.10;;
20802;SDS011;10562;-33.856;151.182;2023-03-05T03:08:43;6.13;;;1.05;;
20802;SDS011;10562;-33.856;151.182;2023-03-05T03:11:14;7.45;;;1.35;;
20802;SDS011;10562;-33.856;151.182;2023-03-05T03:13:46;7.70;;;1.10;;
20802;SDS011;10562;-33.856;151.182;2023-03-05T03:16:17;7.53;;;1.20;;
20802;SDS011;10562;-33.856;151.182;2023-03-05T03:18:47;5.93;;;1.30;;
20802;SDS011;10562;-33.856;151.182;2023-03-05T03:21:19;4.57;;;1.10;;
20802;SDS011;10562;-33.856;151.182;2023-03-05T03:23:55;4.13;;;1.00;;
20802;SDS011;10562;-33.856;151.182;2023-03-05T03:26:26;3.83;;;1.00;;
20802;SDS011;10562;-33.856;151.182;2023-03-05T03:29:00;5.57;;;1.02;;
20802;SDS011;10562;-33.856;151.182;2023-03-05T03:31:31;3.97;;;0.98;;
20802;SDS011;10562;-33.856;151.182;2023-03-05T03:34:04;5.13;;;1.20;;
20802;SDS011;10562;-33.856;151.182;2023-03-05T03:36:35;8.32;;;1.00;;
20802;SDS011;10562;-33.856;151.182;2023-03-05T03:39:08;4.75;;;1.02;;
20802;SDS011;10562;-33.856;151.182;2023-03-05T03:41:40;6.22;;;1.00;;
20802;SDS011;10562;-33.856;151.182;2023-03-05T03:44:11;10.18;;;1.25;;
20802;SDS011;10562;-33.856;151.182;2023-03-05T03:46:43;6.28;;;1.02;;
20802;SDS011;10562;-33.856;151.182;2023-03-05T03:49:15;8.60;;;1.38;;
20802;SDS011;10562;-33.856;151.182;2023-03-05T03:51:48;7.25;;;1.17;;
20802;SDS011;10562;-33.856;151.182;2023-03-05T03:54:21;5.10;;;1.00;;
20802;SDS011;10562;-33.856;151.182;2023-03-05T03:56:53;4.47;;;1.00;;
20802;SDS011;10562;-33.856;151.182;2023-03-05T03:59:24;7.07;;;1.20;;
20802;SDS011;10562;-33.856;151.182;2023-03-05T04:01:55;5.22;;;1.10;;
20802;SDS011;10562;-33.856;151.182;2023-03-05T04:04:26;5.20;;;1.17;;
20802;SDS011;10562;-33.856;151.182;2023-03-05T04:06:56;5.68;;;1.35;;
20802;SDS011;10562;-33.856;151.182;2023-03-05T04:09:29;6.00;;;1.10;;
20802;SDS011;10562;-33.856;151.182;2023-03-05T04:12:00;7.15;;;1.27;;
20802;SDS011;10562;-33.856;151.182;2023-03-05T04:14:31;3.15;;;1.08;;
20802;SDS011;10562;-33.856;151.182;2023-03-05T04:17:02;6.13;;;1.27;;
20802;SDS011;10562;-33.856;151.182;2023-03-05T04:19:33;5.78;;;1.00;;
20802;SDS011;10562;-33.856;151.182;2023-03-05T04:22:03;7.35;;;1.20;;
20802;SDS011;10562;-33.856;151.182;2023-03-05T04:24:36;7.60;;;1.15;;
20802;SDS011;10562;-33.856;151.182;2023-03-05T04:27:07;5.72;;;1.25;;
20802;SDS011;10562;-33.856;151.182;2023-03-05T04:29:38;4.30;;;1.20;;
20802;SDS011;10562;-33.856;151.182;2023-03-05T04:32:09;6.63;;;1.10;;
20802;SDS011;10562;-33.856;151.182;2023-03-05T04:34:40;8.27;;;1.27;;
20802;SDS011;10562;-33.856;151.182;2023-03-05T04:37:10;4.07;;;1.10;;
20802;SDS011;10562;-33.856;151.182;2023-03-05T04:39:43;5.57;;;1.27;;
20802;SDS011;10562;-33.856;151.182;2023-03-05T04:42:14;7.47;;;1.10;;
20802;SDS011;10562;-33.856;151.182;2023-03-05T04:44:45;10.10;;;1.33;;
20802;SDS011;10562;-33.856;151.182;2023-03-05T04:47:17;8.90;;;1.30;;
20802;SDS011;10562;-33.856;151.182;2023-03-05T04:49:48;10.07;;;1.17;;
20802;SDS011;10562;-33.856;151.182;2023-03-05T04:52:19;7.18;;;1.35;;
20802;SDS011;10562;-33.856;151.182;2023-03-05T04:54:51;4.70;;;1.02;;
20802;SDS011;10562;-33.856;151.182;2023-03-05T04:57:22;5.03;;;1.00;;
20802;SDS011;10562;-33.856;151.182;2023-03-05T04:59:53;8.73;;;1.30;;
20802;SDS011;10562;-33.856;151.182;2023-03-05T05:02:24;5.93;;;1.27;;
20802;SDS011;10562;-33.856;151.182;2023-03-05T05:04:55;8.98;;;1.40;;
20802;SDS011;10562;-33.856;151.182;2023-03-05T05:07:25;6.45;;;1.23;;
20802;SDS011;10562;-33.856;151.182;2023-03-05T05:09:59;6.63;;;1.35;;
20802;SDS011;10562;-33.856;151.182;2023-03-05T05:12:30;6.90;;;1.27;;
20802;SDS011;10562;-33.856;151.182;2023-03-05T05:15:01;6.40;;;1.02;;
20802;SDS011;10562;-33.856;151.182;2023-03-05T05:17:35;7.80;;;1.20;;
20802;SDS011;10562;-33.856;151.182;2023-03-05T05:20:06;7.57;;;1.30;;
20802;SDS011;10562;-33.856;151.182;2023-03-05T05:22:38;8.50;;;1.50;;
20802;SDS011;10562;-33.856;151.182;2023-03-05T05:25:11;8.57;;;1.30;;
20802;SDS011;10562;-33.856;151.182;2023-03-05T05:27:42;6.45;;;1.05;;
20802;SDS011;10562;-33.856;151.182;2023-03-05T05:30:13;9.85;;;1.23;;
20802;SDS011;10562;-33.856;151.182;2023-03-05T05:32:43;4.10;;;1.30;;
20802;SDS011;10562;-33.856;151.182;2023-03-05T05:35:14;8.32;;;1.45;;
20802;SDS011;10562;-33.856;151.182;2023-03-05T05:37:45;5.97;;;1.27;;
20802;SDS011;10562;-33.856;151.182;2023-03-05T05:40:18;6.68;;;1.40;;
20802;SDS011;10562;-33.856;151.182;2023-03-05T05:42:49;7.50;;;1.25;;
20802;SDS011;10562;-33.856;151.182;2023-03-05T05:45:20;6.93;;;1.20;;
20802;SDS011;10562;-33.856;151.182;2023-03-05T05:47:50;10.88;;;1.33;;
20802;SDS011;10562;-33.856;151.182;2023-03-05T05:50:21;9.73;;;1.40;;
20802;SDS011;10562;-33.856;151.182;2023-03-05T05:52:52;10.00;;;1.40;;
20802;SDS011;10562;-33.856;151.182;2023-03-05T05:55:25;6.03;;;1.30;;
20802;SDS011;10562;-33.856;151.182;2023-03-05T05:57:56;9.05;;;1.30;;
20802;SDS011;10562;-33.856;151.182;2023-03-05T06:00:27;8.40;;;1.30;;
20802;SDS011;10562;-33.856;151.182;2023-03-05T06:02:57;8.70;;;1.27;;
20802;SDS011;10562;-33.856;151.182;2023-03-05T06:05:29;5.38;;;1.30;;
20802;SDS011;10562;-33.856;151.182;2023-03-05T06:08:00;11.20;;;1.50;;
20802;SDS011;10562;-33.856;151.182;2023-03-05T06:10:32;8.57;;;1.30;;
20802;SDS011;10562;-33.856;151.182;2023-03-05T06:13:03;6.93;;;1.42;;
20802;SDS011;10562;-33.856;151.182;2023-03-05T06:15:34;8.63;;;1.42;;
20802;SDS011;10562;-33.856;151.182;2023-03-05T06:18:05;9.13;;;1.50;;
20802;SDS011;10562;-33.856;151.182;2023-03-05T06:20:36;6.50;;;1.35;;
20802;SDS011;10562;-33.856;151.182;2023-03-05T06:23:07;6.45;;;1.33;;
20802;SDS011;10562;-33.856;151.182;2023-03-05T06:25:40;7.50;;;1.63;;
20802;SDS011;10562;-33.856;151.182;2023-03-05T06:28:11;8.23;;;1.55;;
20802;SDS011;10562;-33.856;151.182;2023-03-05T06:30:41;8.23;;;1.50;;
20802;SDS011;10562;-33.856;151.182;2023-03-05T06:33:12;7.60;;;1.48;;
20802;SDS011;10562;-33.856;151.182;2023-03-05T06:35:43;9.05;;;1.50;;
20802;SDS011;10562;-33.856;151.182;2023-03-05T06:38:14;9.88;;;1.98;;
20802;SDS011;10562;-33.856;151.182;2023-03-05T06:40:46;9.90;;;1.27;;
20802;SDS011;10562;-33.856;151.182;2023-03-05T06:43:17;6.53;;;1.50;;
20802;SDS011;10562;-33.856;151.182;2023-03-05T06:45:48;9.05;;;1.88;;
20802;SDS011;10562;-33.856;151.182;2023-03-05T06:48:28;13.52;;;1.60;;
20802;SDS011;10562;-33.856;151.182;2023-03-05T06:50:59;8.50;;;1.60;;
20802;SDS011;10562;-33.856;151.182;2023-03-05T06:53:30;9.95;;;1.40;;
20802;SDS011;10562;-33.856;151.182;2023-03-05T06:56:03;8.18;;;1.33;;
20802;SDS011;10562;-33.856;151.182;2023-03-05T06:58:34;10.07;;;1.60;;
20802;SDS011;10562;-33.856;151.182;2023-03-05T07:01:05;4.90;;;1.40;;
20802;SDS011;10562;-33.856;151.182;2023-03-05T07:03:36;8.73;;;1.45;;
20802;SDS011;10562;-33.856;151.182;2023-03-05T07:06:07;9.50;;;1.58;;
20802;SDS011;10562;-33.856;151.182;2023-03-05T07:08:41;6.80;;;1.75;;
20802;SDS011;10562;-33.856;151.182;2023-03-05T07:11:14;11.63;;;1.80;;
20802;SDS011;10562;-33.856;151.182;2023-03-05T07:13:46;7.18;;;1.45;;
20802;SDS011;10562;-33.856;151.182;2023-03-05T07:16:19;8.95;;;1.40;;
20802;SDS011;10562;-33.856;151.182;2023-03-05T07:18:50;11.82;;;1.80;;
20802;SDS011;10562;-33.856;151.182;2023-03-05T07:21:22;10.20;;;1.70;;
20802;SDS011;10562;-33.856;151.182;2023-03-05T07:23:55;11.52;;;1.70;;
20802;SDS011;10562;-33.856;151.182;2023-03-05T07:26:28;23.42;;;6.90;;
20802;SDS011;10562;-33.856;151.182;2023-03-05T07:29:00;11.27;;;2.40;;
20802;SDS011;10562;-33.856;151.182;2023-03-05T07:31:31;9.73;;;1.65;;
20802;SDS011;10562;-33.856;151.182;2023-03-05T07:34:02;11.75;;;1.80;;
20802;SDS011;10562;-33.856;151.182;2023-03-05T07:36:32;12.27;;;1.77;;
20802;SDS011;10562;-33.856;151.182;2023-03-05T07:39:03;10.07;;;1.58;;
20802;SDS011;10562;-33.856;151.182;2023-03-05T07:41:36;13.10;;;2.13;;
20802;SDS011;10562;-33.856;151.182;2023-03-05T07:44:08;9.70;;;1.90;;
20802;SDS011;10562;-33.856;151.182;2023-03-05T07:46:39;13.50;;;1.85;;
20802;SDS011;10562;-33.856;151.182;2023-03-05T07:49:10;9.82;;;1.65;;
20802;SDS011;10562;-33.856;151.182;2023-03-05T07:51:40;10.30;;;2.08;;
20802;SDS011;10562;-33.856;151.182;2023-03-05T07:54:11;14.63;;;2.30;;
20802;SDS011;10562;-33.856;151.182;2023-03-05T07:56:44;15.93;;;2.60;;
20802;SDS011;10562;-33.856;151.182;2023-03-05T07:59:15;9.93;;;1.90;;
20802;SDS011;10562;-33.856;151.182;2023-03-05T08:01:46;13.65;;;2.17;;
20802;SDS011;10562;-33.856;151.182;2023-03-05T08:04:16;10.48;;;2.08;;
20802;SDS011;10562;-33.856;151.182;2023-03-05T08:06:47;11.85;;;2.13;;
20802;SDS011;10562;-33.856;151.182;2023-03-05T08:09:18;11.35;;;2.00;;
20802;SDS011;10562;-33.856;151.182;2023-03-05T08:11:51;12.32;;;2.42;;
20802;SDS011;10562;-33.856;151.182;2023-03-05T08:14:21;14.52;;;3.22;;
20802;SDS011;10562;-33.856;151.182;2023-03-05T08:16:52;13.98;;;2.58;;
20802;SDS011;10562;-33.856;151.182;2023-03-05T08:19:23;12.90;;;2.75;;
20802;SDS011;10562;-33.856;151.182;2023-03-05T08:21:54;14.95;;;2.90;;
20802;SDS011;10562;-33.856;151.182;2023-03-05T08:24:24;13.57;;;3.10;;
20802;SDS011;10562;-33.856;151.182;2023-03-05T08:26:58;14.82;;;2.97;;
20802;SDS011;10562;-33.856;151.182;2023-03-05T08:29:29;14.90;;;3.53;;
20802;SDS011;10562;-33.856;151.182;2023-03-05T08:32:00;13.05;;;2.95;;
20802;SDS011;10562;-33.856;151.182;2023-03-05T08:34:30;14.50;;;3.60;;
20802;SDS011;10562;-33.856;151.182;2023-03-05T08:37:01;14.15;;;3.53;;
20802;SDS011;10562;-33.856;151.182;2023-03-05T08:39:34;15.30;;;3.50;;
20802;SDS011;10562;-33.856;151.182;2023-03-05T08:42:07;14.00;;;3.47;;
20802;SDS011;10562;-33.856;151.182;2023-03-05T08:44:37;14.05;;;3.38;;
20802;SDS011;10562;-33.856;151.182;2023-03-05T08:47:08;15.80;;;4.05;;
20802;SDS011;10562;-33.856;151.182;2023-03-05T08:49:39;10.80;;;3.88;;
20802;SDS011;10562;-33.856;151.182;2023-03-05T08:52:10;18.15;;;4.22;;
20802;SDS011;10562;-33.856;151.182;2023-03-05T08:54:41;14.38;;;4.00;;
20802;SDS011;10562;-33.856;151.182;2023-03-05T08:57:13;17.60;;;4.18;;
20802;SDS011;10562;-33.856;151.182;2023-03-05T08:59:44;17.02;;;4.15;;
20802;SDS011;10562;-33.856;151.182;2023-03-05T09:02:15;15.75;;;4.22;;
20802;SDS011;10562;-33.856;151.182;2023-03-05T09:04:46;15.27;;;4.63;;
20802;SDS011;10562;-33.856;151.182;2023-03-05T09:07:17;19.23;;;5.38;;
20802;SDS011;10562;-33.856;151.182;2023-03-05T09:09:48;17.95;;;4.97;;
20802;SDS011;10562;-33.856;151.182;2023-03-05T09:12:21;14.30;;;4.50;;
20802;SDS011;10562;-33.856;151.182;2023-03-05T09:14:53;18.83;;;4.22;;
20802;SDS011;10562;-33.856;151.182;2023-03-05T09:17:24;13.75;;;5.30;;
20802;SDS011;10562;-33.856;151.182;2023-03-05T09:19:54;15.27;;;4.93;;
20802;SDS011;10562;-33.856;151.182;2023-03-05T09:22:25;11.70;;;4.45;;
20802;SDS011;10562;-33.856;151.182;2023-03-05T09:24:57;23.77;;;5.65;;
20802;SDS011;10562;-33.856;151.182;2023-03-05T09:27:29;11.32;;;5.18;;
20802;SDS011;10562;-33.856;151.182;2023-03-05T09:30:02;17.08;;;5.50;;
20802;SDS011;10562;-33.856;151.182;2023-03-05T09:32:34;14.68;;;5.07;;
20802;SDS011;10562;-33.856;151.182;2023-03-05T09:35:05;18.83;;;5.43;;
20802;SDS011;10562;-33.856;151.182;2023-03-05T09:37:36;16.73;;;4.10;;
20802;SDS011;10562;-33.856;151.182;2023-03-05T09:40:11;14.55;;;4.70;;
20802;SDS011;10562;-33.856;151.182;2023-03-05T09:42:48;15.65;;;5.93;;
20802;SDS011;10562;-33.856;151.182;2023-03-05T09:45:29;19.58;;;6.32;;
20802;SDS011;10562;-33.856;151.182;2023-03-05T09:48:10;15.38;;;6.35;;
20802;SDS011;10562;-33.856;151.182;2023-03-05T09:50:47;17.13;;;5.85;;
20802;SDS011;10562;-33.856;151.182;2023-03-05T09:53:22;24.77;;;6.18;;
20802;SDS011;10562;-33.856;151.182;2023-03-05T09:56:02;14.25;;;5.72;;
20802;SDS011;10562;-33.856;151.182;2023-03-05T09:58:40;16.80;;;6.03;;
20802;SDS011;10562;-33.856;151.182;2023-03-05T10:01:15;18.70;;;6.65;;
20802;SDS011;10562;-33.856;151.182;2023-03-05T10:03:50;20.38;;;6.30;;
20802;SDS011;10562;-33.856;151.182;2023-03-05T10:06:25;16.77;;;6.07;;
20802;SDS011;10562;-33.856;151.182;2023-03-05T10:09:02;19.67;;;6.15;;
20802;SDS011;10562;-33.856;151.182;2023-03-05T10:11:45;21.08;;;6.70;;
20802;SDS011;10562;-33.856;151.182;2023-03-05T10:14:28;13.52;;;6.07;;
20802;SDS011;10562;-33.856;151.182;2023-03-05T10:17:11;17.33;;;6.90;;
20802;SDS011;10562;-33.856;151.182;2023-03-05T10:20:01;16.40;;;6.40;;
20802;SDS011;10562;-33.856;151.182;2023-03-05T10:22:47;17.83;;;6.30;;
20802;SDS011;10562;-33.856;151.182;2023-03-05T10:25:37;15.10;;;6.60;;
20802;SDS011;10562;-33.856;151.182;2023-03-05T10:28:20;18.48;;;6.22;;
20802;SDS011;10562;-33.856;151.182;2023-03-05T10:31:02;15.95;;;5.75;;
20802;SDS011;10562;-33.856;151.182;2023-03-05T10:33:45;18.85;;;5.60;;
20802;SDS011;10562;-33.856;151.182;2023-03-05T10:36:29;16.88;;;5.90;;
20802;SDS011;10562;-33.856;151.182;2023-03-05T10:42:16;19.50;;;7.30;;
20802;SDS011;10562;-33.856;151.182;2023-03-05T10:44:53;17.83;;;7.15;;
20802;SDS011;10562;-33.856;151.182;2023-03-05T10:47:27;15.13;;;7.03;;
20802;SDS011;10562;-33.856;151.182;2023-03-05T10:50:09;16.23;;;6.85;;
20802;SDS011;10562;-33.856;151.182;2023-03-05T10:52:46;19.50;;;7.07;;
20802;SDS011;10562;-33.856;151.182;2023-03-05T10:55:23;14.90;;;7.35;;
20802;SDS011;10562;-33.856;151.182;2023-03-05T10:57:54;15.32;;;6.72;;
20802;SDS011;10562;-33.856;151.182;2023-03-05T11:00:26;16.65;;;7.57;;
20802;SDS011;10562;-33.856;151.182;2023-03-05T11:03:00;24.20;;;8.07;;
20802;SDS011;10562;-33.856;151.182;2023-03-05T11:05:35;19.48;;;7.78;;
20802;SDS011;10562;-33.856;151.182;2023-03-05T11:08:26;19.10;;;8.15;;
20802;SDS011;10562;-33.856;151.182;2023-03-05T11:11:02;18.38;;;7.60;;
20802;SDS011;10562;-33.856;151.182;2023-03-05T11:13:40;20.45;;;7.85;;
20802;SDS011;10562;-33.856;151.182;2023-03-05T11:16:20;18.45;;;7.95;;
20802;SDS011;10562;-33.856;151.182;2023-03-05T11:21:46;17.95;;;7.60;;
20802;SDS011;10562;-33.856;151.182;2023-03-05T11:24:36;18.05;;;7.80;;
20802;SDS011;10562;-33.856;151.182;2023-03-05T11:27:20;16.15;;;7.40;;
20802;SDS011;10562;-33.856;151.182;2023-03-05T11:29:53;20.30;;;8.00;;
20802;SDS011;10562;-33.856;151.182;2023-03-05T11:32:25;18.98;;;7.90;;
20802;SDS011;10562;-33.856;151.182;2023-03-05T11:34:58;26.42;;;13.70;;
20802;SDS011;10562;-33.856;151.182;2023-03-05T11:37:29;20.20;;;8.10;;
20802;SDS011;10562;-33.856;151.182;2023-03-05T11:42:56;13.75;;;7.20;;
20802;SDS011;10562;-33.856;151.182;2023-03-05T11:45:28;22.83;;;9.02;;
20802;SDS011;10562;-33.856;151.182;2023-03-05T11:48:03;16.23;;;7.93;;
20802;SDS011;10562;-33.856;151.182;2023-03-05T11:50:39;18.90;;;8.38;;
20802;SDS011;10562;-33.856;151.182;2023-03-05T11:53:12;14.18;;;7.78;;
20802;SDS011;10562;-33.856;151.182;2023-03-05T11:55:47;18.95;;;8.88;;
20802;SDS011;10562;-33.856;151.182;2023-03-05T11:58:30;20.83;;;10.32;;
20802;SDS011;10562;-33.856;151.182;2023-03-05T12:01:04;20.42;;;9.40;;
20802;SDS011;10562;-33.856;151.182;2023-03-05T12:03:42;18.50;;;9.98;;
20802;SDS011;10562;-33.856;151.182;2023-03-05T12:06:16;21.52;;;11.10;;
20802;SDS011;10562;-33.856;151.182;2023-03-05T12:08:52;15.30;;;10.13;;
20802;SDS011;10562;-33.856;151.182;2023-03-05T12:11:25;26.95;;;19.05;;
20802;SDS011;10562;-33.856;151.182;2023-03-05T12:13:58;24.55;;;10.65;;
20802;SDS011;10562;-33.856;151.182;2023-03-05T12:16:33;13.95;;;10.10;;
20802;SDS011;10562;-33.856;151.182;2023-03-05T12:19:18;18.20;;;11.27;;
20802;SDS011;10562;-33.856;151.182;2023-03-05T12:22:04;18.25;;;10.70;;
20802;SDS011;10562;-33.856;151.182;2023-03-05T12:24:48;22.65;;;19.20;;
20802;SDS011;10562;-33.856;151.182;2023-03-05T12:27:31;17.40;;;11.00;;
20802;SDS011;10562;-33.856;151.182;2023-03-05T12:30:08;15.77;;;10.48;;
20802;SDS011;10562;-33.856;151.182;2023-03-05T12:45:28;17.95;;;10.90;;
20802;SDS011;10562;-33.856;151.182;2023-03-05T12:51:26;13.25;;;10.82;;
20802;SDS011;10562;-33.856;151.182;2023-03-05T12:53:59;15.43;;;11.07;;
20802;SDS011;10562;-33.856;151.182;2023-03-05T12:56:58;17.35;;;11.30;;
20802;SDS011;10562;-33.856;151.182;2023-03-05T12:59:34;16.05;;;11.80;;
20802;SDS011;10562;-33.856;151.182;2023-03-05T13:02:15;14.85;;;11.48;;
20802;SDS011;10562;-33.856;151.182;2023-03-05T13:04:56;16.00;;;11.13;;
20802;SDS011;10562;-33.856;151.182;2023-03-05T13:07:28;16.55;;;10.77;;
20802;SDS011;10562;-33.856;151.182;2023-03-05T13:10:00;22.00;;;19.65;;
20802;SDS011;10562;-33.856;151.182;2023-03-05T13:12:31;16.45;;;10.85;;
20802;SDS011;10562;-33.856;151.182;2023-03-05T13:15:05;16.13;;;10.18;;
20802;SDS011;10562;-33.856;151.182;2023-03-05T13:17:49;18.40;;;11.38;;
20802;SDS011;10562;-33.856;151.182;2023-03-05T13:20:24;13.70;;;10.48;;
20802;SDS011;10562;-33.856;151.182;2023-03-05T13:23:16;15.15;;;10.40;;
20802;SDS011;10562;-33.856;151.182;2023-03-05T13:25:58;15.38;;;10.68;;
20802;SDS011;10562;-33.856;151.182;2023-03-05T13:28:38;12.80;;;9.95;;
20802;SDS011;10562;-33.856;151.182;2023-03-05T13:31:13;15.98;;;10.73;;
20802;SDS011;10562;-33.856;151.182;2023-03-05T13:33:51;14.35;;;10.18;;
20802;SDS011;10562;-33.856;151.182;2023-03-05T13:36:24;15.82;;;11.32;;
20802;SDS011;10562;-33.856;151.182;2023-03-05T13:38:55;14.85;;;10.18;;
20802;SDS011;10562;-33.856;151.182;2023-03-05T13:41:29;15.05;;;10.13;;
20802;SDS011;10562;-33.856;151.182;2023-03-05T13:43:59;13.63;;;10.00;;
20802;SDS011;10562;-33.856;151.182;2023-03-05T13:46:33;14.70;;;11.15;;
20802;SDS011;10562;-33.856;151.182;2023-03-05T13:49:18;16.20;;;11.63;;
20802;SDS011;10562;-33.856;151.182;2023-03-05T13:51:50;17.58;;;11.60;;
20802;SDS011;10562;-33.856;151.182;2023-03-05T13:54:23;17.60;;;13.55;;
20802;SDS011;10562;-33.856;151.182;2023-03-05T13:56:55;13.27;;;10.68;;
20802;SDS011;10562;-33.856;151.182;2023-03-05T13:59:27;13.35;;;10.25;;
20802;SDS011;10562;-33.856;151.182;2023-03-05T14:02:01;15.30;;;10.40;;
20802;SDS011;10562;-33.856;151.182;2023-03-05T14:04:43;14.02;;;9.60;;
20802;SDS011;10562;-33.856;151.182;2023-03-05T14:07:23;11.93;;;10.15;;
20802;SDS011;10562;-33.856;151.182;2023-03-05T14:10:00;11.20;;;10.02;;
20802;SDS011;10562;-33.856;151.182;2023-03-05T14:12:33;14.43;;;10.75;;
20802;SDS011;10562;-33.856;151.182;2023-03-05T14:15:18;13.98;;;10.52;;
20802;SDS011;10562;-33.856;151.182;2023-03-05T14:18:05;12.30;;;10.82;;
20802;SDS011;10562;-33.856;151.182;2023-03-05T14:20:57;12.43;;;10.60;;
20802;SDS011;10562;-33.856;151.182;2023-03-05T14:23:33;14.30;;;10.57;;
20802;SDS011;10562;-33.856;151.182;2023-03-05T14:26:25;14.90;;;10.30;;
20802;SDS011;10562;-33.856;151.182;2023-03-05T14:28:59;13.25;;;10.35;;
20802;SDS011;10562;-33.856;151.182;2023-03-05T14:31:31;13.40;;;10.57;;
20802;SDS011;10562;-33.856;151.182;2023-03-05T14:34:12;13.38;;;11.75;;
20802;SDS011;10562;-33.856;151.182;2023-03-05T14:36:49;16.48;;;14.27;;
20802;SDS011;10562;-33.856;151.182;2023-03-05T14:39:29;15.05;;;10.80;;
20802;SDS011;10562;-33.856;151.182;2023-03-05T14:42:20;13.63;;;11.10;;
20802;SDS011;10562;-33.856;151.182;2023-03-05T14:44:55;17.48;;;11.05;;
20802;SDS011;10562;-33.856;151.182;2023-03-05T14:47:28;12.65;;;10.20;;
20802;SDS011;10562;-33.856;151.182;2023-03-05T14:50:01;18.00;;;10.80;;
20802;SDS011;10562;-33.856;151.182;2023-03-05T14:52:32;14.70;;;10.95;;
20802;SDS011;10562;-33.856;151.182;2023-03-05T14:55:04;13.68;;;10.98;;
20802;SDS011;10562;-33.856;151.182;2023-03-05T14:57:36;14.13;;;10.63;;
20802;SDS011;10562;-33.856;151.182;2023-03-05T15:00:10;13.43;;;11.65;;
20802;SDS011;10562;-33.856;151.182;2023-03-05T15:02:44;12.98;;;10.55;;